sensor_id;sensor_type;location;lat;lon;timestamp;P1;durP1;ratioP1;P2;durP2;ratioP2
13985;SDS011;7067;51.832;8.296;2023-01-23T00:00:50;24.67;;;22.13;;
13985;SDS011;7067;51.832;8.296;2023-01-23T00:03:15;25.37;;;22.67;;
13985;SDS011;7067;51.832;8.296;2023-01-23T00:05:41;24.00;;;21.27;;
13985;SDS011;7067;51.832;8.296;2023-01-23T00:08:06;24.87;;;22.33;;
13985;SDS011;7067;51.832;8.296;2023-01-23T00:10:31;24.67;;;22.07;;
13985;SDS011;7067;51.832;8.296;2023-01-23T00:12:57;25.47;;;22.90;;
13985;SDS011;7067;51.832;8.296;2023-01-23T00:15:22;25.00;;;22.50;;
13985;SDS011;7067;51.832;8.296;2023-01-23T00:17:47;24.93;;;22.23;;
13985;SDS011;7067;51.832;8.296;2023-01-23T00:20:13;23.87;;;21.37;;
13985;SDS011;7067;51.832;8.296;2023-01-23T00:22:38;26.87;;;24.07;;
13985;SDS011;7067;51.832;8.296;2023-01-23T00:25:04;26.23;;;23.43;;
13985;SDS011;7067;51.832;8.296;2023-01-23T00:27:30;26.43;;;23.67;;
13985;SDS011;7067;51.832;8.296;2023-01-23T00:29:55;27.83;;;24.97;;
13985;SDS011;7067;51.832;8.296;2023-01-23T00:32:21;28.77;;;25.40;;
13985;SDS011;7067;51.832;8.296;2023-01-23T00:34:46;26.60;;;23.70;;
13985;SDS011;7067;51.832;8.296;2023-01-23T00:37:12;26.10;;;22.77;;
13985;SDS011;7067;51.832;8.296;2023-01-23T00:39:38;26.47;;;23.67;;
13985;SDS011;7067;51.832;8.296;2023-01-23T00:42:04;25.20;;;22.57;;
13985;SDS011;7067;51.832;8.296;2023-01-23T00:44:29;24.97;;;22.47;;
13985;SDS011;7067;51.832;8.296;2023-01-23T00:46:55;25.33;;;22.57;;
13985;SDS011;7067;51.832;8.296;2023-01-23T00:49:21;24.47;;;21.87;;
13985;SDS011;7067;51.832;8.296;2023-01-23T00:51:47;33.50;;;25.53;;
13985;SDS011;7067;51.832;8.296;2023-01-23T00:54:12;31.43;;;24.07;;
13985;SDS011;7067;51.832;8.296;2023-01-23T00:56:37;27.47;;;22.73;;
13985;SDS011;7067;51.832;8.296;2023-01-23T00:59:03;26.20;;;23.50;;
13985;SDS011;7067;51.832;8.296;2023-01-23T01:01:28;24.53;;;21.97;;
13985;SDS011;7067;51.832;8.296;2023-01-23T01:03:55;26.60;;;23.80;;
13985;SDS011;7067;51.832;8.296;2023-01-23T01:06:21;26.90;;;23.23;;
13985;SDS011;7067;51.832;8.296;2023-01-23T01:08:46;25.83;;;22.50;;
13985;SDS011;7067;51.832;8.296;2023-01-23T01:11:12;25.70;;;22.30;;
13985;SDS011;7067;51.832;8.296;2023-01-23T01:13:37;25.97;;;23.17;;
13985;SDS011;7067;51.832;8.296;2023-01-23T01:16:02;26.23;;;23.43;;
13985;SDS011;7067;51.832;8.296;2023-01-23T01:18:28;25.40;;;22.70;;
13985;SDS011;7067;51.832;8.296;2023-01-23T01:20:54;23.33;;;20.93;;
13985;SDS011;7067;51.832;8.296;2023-01-23T01:23:20;25.03;;;22.43;;
13985;SDS011;7067;51.832;8.296;2023-01-23T01:25:45;24.63;;;22.13;;
13985;SDS011;7067;51.832;8.296;2023-01-23T01:28:11;23.03;;;20.70;;
13985;SDS011;7067;51.832;8.296;2023-01-23T01:30:37;23.73;;;21.17;;
13985;SDS011;7067;51.832;8.296;2023-01-23T01:33:02;28.40;;;23.23;;
13985;SDS011;7067;51.832;8.296;2023-01-23T01:35:28;25.97;;;22.63;;
13985;SDS011;7067;51.832;8.296;2023-01-23T01:37:53;25.50;;;22.83;;
13985;SDS011;7067;51.832;8.296;2023-01-23T01:40:23;24.93;;;21.00;;
13985;SDS011;7067;51.832;8.296;2023-01-23T01:42:55;24.57;;;21.97;;
13985;SDS011;7067;51.832;8.296;2023-01-23T01:48:26;24.17;;;21.60;;
13985;SDS011;7067;51.832;8.296;2023-01-23T01:50:56;25.53;;;22.83;;
13985;SDS011;7067;51.832;8.296;2023-01-23T01:53:22;26.43;;;23.47;;
13985;SDS011;7067;51.832;8.296;2023-01-23T01:55:50;25.73;;;23.03;;
13985;SDS011;7067;51.832;8.296;2023-01-23T01:58:15;26.70;;;23.33;;
13985;SDS011;7067;51.832;8.296;2023-01-23T02:00:41;24.30;;;20.70;;
13985;SDS011;7067;51.832;8.296;2023-01-23T02:03:07;22.97;;;20.57;;
13985;SDS011;7067;51.832;8.296;2023-01-23T02:05:34;24.97;;;22.33;;
13985;SDS011;7067;51.832;8.296;2023-01-23T02:10:29;25.70;;;22.90;;
13985;SDS011;7067;51.832;8.296;2023-01-23T02:13:16;24.80;;;22.10;;
13985;SDS011;7067;51.832;8.296;2023-01-23T02:15:46;24.88;;;22.20;;
13985;SDS011;7067;51.832;8.296;2023-01-23T02:18:11;24.43;;;21.77;;
13985;SDS011;7067;51.832;8.296;2023-01-23T02:20:37;24.60;;;21.80;;
13985;SDS011;7067;51.832;8.296;2023-01-23T02:23:09;23.33;;;20.90;;
13985;SDS011;7067;51.832;8.296;2023-01-23T02:28:09;22.57;;;20.37;;
13985;SDS011;7067;51.832;8.296;2023-01-23T02:30:36;22.67;;;20.37;;
13985;SDS011;7067;51.832;8.296;2023-01-23T02:33:39;23.43;;;21.03;;
13985;SDS011;7067;51.832;8.296;2023-01-23T02:35:56;22.63;;;20.33;;
13985;SDS011;7067;51.832;8.296;2023-01-23T02:38:30;25.37;;;20.77;;
13985;SDS011;7067;51.832;8.296;2023-01-23T02:40:58;22.13;;;19.87;;
13985;SDS011;7067;51.832;8.296;2023-01-23T02:43:26;23.47;;;20.47;;
13985;SDS011;7067;51.832;8.296;2023-01-23T02:46:00;22.73;;;19.60;;
13985;SDS011;7067;51.832;8.296;2023-01-23T02:48:26;20.10;;;17.13;;
13985;SDS011;7067;51.832;8.296;2023-01-23T02:50:51;21.07;;;18.50;;
13985;SDS011;7067;51.832;8.296;2023-01-23T02:53:17;21.57;;;19.10;;
13985;SDS011;7067;51.832;8.296;2023-01-23T02:55:42;20.57;;;18.43;;
13985;SDS011;7067;51.832;8.296;2023-01-23T02:58:08;22.07;;;18.40;;
13985;SDS011;7067;51.832;8.296;2023-01-23T03:00:53;20.93;;;18.73;;
13985;SDS011;7067;51.832;8.296;2023-01-23T03:03:18;21.97;;;19.70;;
13985;SDS011;7067;51.832;8.296;2023-01-23T03:05:44;23.10;;;19.20;;
13985;SDS011;7067;51.832;8.296;2023-01-23T03:08:10;27.70;;;20.67;;
13985;SDS011;7067;51.832;8.296;2023-01-23T03:10:36;22.37;;;19.87;;
13985;SDS011;7067;51.832;8.296;2023-01-23T03:13:01;21.00;;;18.73;;
13985;SDS011;7067;51.832;8.296;2023-01-23T03:15:28;22.20;;;19.43;;
13985;SDS011;7067;51.832;8.296;2023-01-23T03:17:55;21.77;;;19.27;;
13985;SDS011;7067;51.832;8.296;2023-01-23T03:20:21;21.03;;;18.83;;
13985;SDS011;7067;51.832;8.296;2023-01-23T03:22:47;22.67;;;18.87;;
13985;SDS011;7067;51.832;8.296;2023-01-23T03:25:13;21.80;;;19.10;;
13985;SDS011;7067;51.832;8.296;2023-01-23T03:27:38;23.37;;;20.47;;
13985;SDS011;7067;51.832;8.296;2023-01-23T03:30:04;22.13;;;18.97;;
13985;SDS011;7067;51.832;8.296;2023-01-23T03:32:40;23.23;;;19.27;;
13985;SDS011;7067;51.832;8.296;2023-01-23T03:35:07;22.83;;;19.10;;
13985;SDS011;7067;51.832;8.296;2023-01-23T03:37:43;22.57;;;18.83;;
13985;SDS011;7067;51.832;8.296;2023-01-23T03:40:17;21.77;;;19.43;;
13985;SDS011;7067;51.832;8.296;2023-01-23T03:43:02;21.80;;;18.03;;
13985;SDS011;7067;51.832;8.296;2023-01-23T03:45:28;20.70;;;18.47;;
13985;SDS011;7067;51.832;8.296;2023-01-23T03:47:53;21.57;;;18.97;;
13985;SDS011;7067;51.832;8.296;2023-01-23T03:50:18;20.50;;;18.20;;
13985;SDS011;7067;51.832;8.296;2023-01-23T03:52:44;20.00;;;17.73;;
13985;SDS011;7067;51.832;8.296;2023-01-23T03:55:09;22.30;;;18.17;;
13985;SDS011;7067;51.832;8.296;2023-01-23T03:57:34;21.93;;;18.33;;
13985;SDS011;7067;51.832;8.296;2023-01-23T04:00:00;24.03;;;19.17;;
13985;SDS011;7067;51.832;8.296;2023-01-23T04:02:25;21.07;;;18.67;;
13985;SDS011;7067;51.832;8.296;2023-01-23T04:04:51;22.60;;;19.23;;
13985;SDS011;7067;51.832;8.296;2023-01-23T04:07:17;24.50;;;19.67;;
13985;SDS011;7067;51.832;8.296;2023-01-23T04:09:42;22.33;;;19.37;;
13985;SDS011;7067;51.832;8.296;2023-01-23T04:12:07;23.17;;;19.47;;
13985;SDS011;7067;51.832;8.296;2023-01-23T04:14:33;23.00;;;18.43;;
13985;SDS011;7067;51.832;8.296;2023-01-23T04:17:02;21.57;;;19.10;;
13985;SDS011;7067;51.832;8.296;2023-01-23T04:19:28;20.73;;;18.33;;
13985;SDS011;7067;51.832;8.296;2023-01-23T04:21:53;24.07;;;19.07;;
13985;SDS011;7067;51.832;8.296;2023-01-23T04:24:19;24.37;;;19.83;;
13985;SDS011;7067;51.832;8.296;2023-01-23T04:26:44;22.90;;;19.50;;
13985;SDS011;7067;51.832;8.296;2023-01-23T04:29:09;22.03;;;18.20;;
13985;SDS011;7067;51.832;8.296;2023-01-23T04:31:35;22.60;;;19.23;;
13985;SDS011;7067;51.832;8.296;2023-01-23T04:34:00;20.67;;;17.77;;
13985;SDS011;7067;51.832;8.296;2023-01-23T04:36:26;23.23;;;20.10;;
13985;SDS011;7067;51.832;8.296;2023-01-23T04:38:51;24.27;;;19.10;;
13985;SDS011;7067;51.832;8.296;2023-01-23T04:41:18;23.07;;;18.87;;
13985;SDS011;7067;51.832;8.296;2023-01-23T04:43:45;20.47;;;18.27;;
13985;SDS011;7067;51.832;8.296;2023-01-23T04:46:10;23.57;;;19.20;;
13985;SDS011;7067;51.832;8.296;2023-01-23T04:48:36;20.57;;;18.37;;
13985;SDS011;7067;51.832;8.296;2023-01-23T04:51:01;24.53;;;19.50;;
13985;SDS011;7067;51.832;8.296;2023-01-23T04:53:26;22.37;;;19.87;;
13985;SDS011;7067;51.832;8.296;2023-01-23T04:55:51;22.30;;;19.20;;
13985;SDS011;7067;51.832;8.296;2023-01-23T04:58:17;22.77;;;18.47;;
13985;SDS011;7067;51.832;8.296;2023-01-23T05:00:43;21.57;;;19.03;;
13985;SDS011;7067;51.832;8.296;2023-01-23T05:03:09;21.33;;;18.40;;
13985;SDS011;7067;51.832;8.296;2023-01-23T05:05:34;22.60;;;19.10;;
13985;SDS011;7067;51.832;8.296;2023-01-23T05:07:59;23.83;;;18.40;;
13985;SDS011;7067;51.832;8.296;2023-01-23T05:10:25;21.20;;;18.13;;
13985;SDS011;7067;51.832;8.296;2023-01-23T05:12:50;22.27;;;19.70;;
13985;SDS011;7067;51.832;8.296;2023-01-23T05:15:16;25.63;;;19.63;;
13985;SDS011;7067;51.832;8.296;2023-01-23T05:17:41;25.63;;;19.63;;
13985;SDS011;7067;51.832;8.296;2023-01-23T05:20:07;21.40;;;19.20;;
13985;SDS011;7067;51.832;8.296;2023-01-23T05:22:33;20.27;;;18.00;;
13985;SDS011;7067;51.832;8.296;2023-01-23T05:24:58;23.90;;;19.80;;
13985;SDS011;7067;51.832;8.296;2023-01-23T05:27:24;23.40;;;19.63;;
13985;SDS011;7067;51.832;8.296;2023-01-23T05:29:49;24.07;;;19.80;;
13985;SDS011;7067;51.832;8.296;2023-01-23T05:32:15;22.50;;;18.37;;
13985;SDS011;7067;51.832;8.296;2023-01-23T05:34:40;23.93;;;19.43;;
13985;SDS011;7067;51.832;8.296;2023-01-23T05:37:05;23.63;;;18.60;;
13985;SDS011;7067;51.832;8.296;2023-01-23T05:39:31;20.50;;;17.87;;
13985;SDS011;7067;51.832;8.296;2023-01-23T05:41:56;23.60;;;19.80;;
13985;SDS011;7067;51.832;8.296;2023-01-23T05:44:22;23.30;;;18.90;;
13985;SDS011;7067;51.832;8.296;2023-01-23T05:46:47;23.63;;;19.67;;
13985;SDS011;7067;51.832;8.296;2023-01-23T05:49:12;22.97;;;19.27;;
13985;SDS011;7067;51.832;8.296;2023-01-23T05:51:38;22.13;;;19.83;;
13985;SDS011;7067;51.832;8.296;2023-01-23T05:54:03;21.80;;;18.23;;
13985;SDS011;7067;51.832;8.296;2023-01-23T05:56:29;23.17;;;19.53;;
13985;SDS011;7067;51.832;8.296;2023-01-23T05:58:54;22.20;;;17.73;;
13985;SDS011;7067;51.832;8.296;2023-01-23T06:01:20;21.23;;;18.03;;
13985;SDS011;7067;51.832;8.296;2023-01-23T06:03:46;21.50;;;18.40;;
13985;SDS011;7067;51.832;8.296;2023-01-23T06:06:11;20.30;;;17.60;;
13985;SDS011;7067;51.832;8.296;2023-01-23T06:08:37;20.90;;;17.80;;
13985;SDS011;7067;51.832;8.296;2023-01-23T06:11:02;19.47;;;17.03;;
13985;SDS011;7067;51.832;8.296;2023-01-23T06:13:28;20.53;;;17.67;;
13985;SDS011;7067;51.832;8.296;2023-01-23T06:15:54;19.03;;;16.53;;
13985;SDS011;7067;51.832;8.296;2023-01-23T06:18:19;19.00;;;16.77;;
13985;SDS011;7067;51.832;8.296;2023-01-23T06:20:45;20.10;;;16.43;;
13985;SDS011;7067;51.832;8.296;2023-01-23T06:23:10;20.40;;;16.87;;
13985;SDS011;7067;51.832;8.296;2023-01-23T06:25:36;17.73;;;15.83;;
13985;SDS011;7067;51.832;8.296;2023-01-23T06:28:02;15.97;;;14.37;;
13985;SDS011;7067;51.832;8.296;2023-01-23T06:30:28;19.10;;;16.43;;
13985;SDS011;7067;51.832;8.296;2023-01-23T06:32:53;19.03;;;16.27;;
13985;SDS011;7067;51.832;8.296;2023-01-23T06:35:18;17.63;;;15.80;;
13985;SDS011;7067;51.832;8.296;2023-01-23T06:37:44;17.93;;;16.03;;
13985;SDS011;7067;51.832;8.296;2023-01-23T06:40:10;19.50;;;16.07;;
13985;SDS011;7067;51.832;8.296;2023-01-23T06:42:39;17.27;;;15.33;;
13985;SDS011;7067;51.832;8.296;2023-01-23T06:45:05;16.43;;;14.40;;
13985;SDS011;7067;51.832;8.296;2023-01-23T06:47:31;16.63;;;14.93;;
13985;SDS011;7067;51.832;8.296;2023-01-23T06:49:57;15.77;;;14.17;;
13985;SDS011;7067;51.832;8.296;2023-01-23T06:52:23;16.80;;;15.00;;
13985;SDS011;7067;51.832;8.296;2023-01-23T06:54:48;15.40;;;13.80;;
13985;SDS011;7067;51.832;8.296;2023-01-23T06:57:14;16.10;;;14.47;;
13985;SDS011;7067;51.832;8.296;2023-01-23T06:59:39;16.70;;;15.00;;
13985;SDS011;7067;51.832;8.296;2023-01-23T07:02:05;16.97;;;15.33;;
13985;SDS011;7067;51.832;8.296;2023-01-23T07:04:31;16.63;;;14.87;;
13985;SDS011;7067;51.832;8.296;2023-01-23T07:06:56;16.17;;;14.53;;
13985;SDS011;7067;51.832;8.296;2023-01-23T07:09:22;15.60;;;14.07;;
13985;SDS011;7067;51.832;8.296;2023-01-23T07:11:47;17.50;;;15.70;;
13985;SDS011;7067;51.832;8.296;2023-01-23T07:14:12;16.50;;;14.83;;
13985;SDS011;7067;51.832;8.296;2023-01-23T07:16:38;15.70;;;14.10;;
13985;SDS011;7067;51.832;8.296;2023-01-23T07:19:03;16.60;;;14.80;;
13985;SDS011;7067;51.832;8.296;2023-01-23T07:21:29;17.03;;;15.03;;
13985;SDS011;7067;51.832;8.296;2023-01-23T07:23:55;17.30;;;15.60;;
13985;SDS011;7067;51.832;8.296;2023-01-23T07:26:20;16.43;;;14.83;;
13985;SDS011;7067;51.832;8.296;2023-01-23T07:28:46;17.50;;;15.80;;
13985;SDS011;7067;51.832;8.296;2023-01-23T07:31:11;18.50;;;16.53;;
13985;SDS011;7067;51.832;8.296;2023-01-23T07:33:36;16.93;;;15.33;;
13985;SDS011;7067;51.832;8.296;2023-01-23T07:36:05;18.13;;;16.23;;
13985;SDS011;7067;51.832;8.296;2023-01-23T07:38:31;16.20;;;14.60;;
13985;SDS011;7067;51.832;8.296;2023-01-23T07:40:56;18.17;;;15.87;;
13985;SDS011;7067;51.832;8.296;2023-01-23T07:43:22;16.77;;;14.97;;
13985;SDS011;7067;51.832;8.296;2023-01-23T07:45:48;16.60;;;14.90;;
13985;SDS011;7067;51.832;8.296;2023-01-23T07:48:14;19.37;;;16.27;;
13985;SDS011;7067;51.832;8.296;2023-01-23T07:50:40;17.37;;;15.67;;
13985;SDS011;7067;51.832;8.296;2023-01-23T07:53:05;17.17;;;15.33;;
13985;SDS011;7067;51.832;8.296;2023-01-23T07:55:30;17.50;;;14.93;;
13985;SDS011;7067;51.832;8.296;2023-01-23T07:57:56;17.20;;;15.47;;
13985;SDS011;7067;51.832;8.296;2023-01-23T08:00:21;18.27;;;16.27;;
13985;SDS011;7067;51.832;8.296;2023-01-23T08:02:47;18.53;;;16.73;;
13985;SDS011;7067;51.832;8.296;2023-01-23T08:05:13;18.00;;;16.10;;
13985;SDS011;7067;51.832;8.296;2023-01-23T08:07:38;17.70;;;15.87;;
13985;SDS011;7067;51.832;8.296;2023-01-23T08:10:04;17.67;;;15.77;;
13985;SDS011;7067;51.832;8.296;2023-01-23T08:12:30;17.93;;;16.07;;
13985;SDS011;7067;51.832;8.296;2023-01-23T08:14:55;17.50;;;15.60;;
13985;SDS011;7067;51.832;8.296;2023-01-23T08:17:20;18.63;;;16.73;;
13985;SDS011;7067;51.832;8.296;2023-01-23T08:19:46;17.67;;;15.83;;
13985;SDS011;7067;51.832;8.296;2023-01-23T08:22:11;18.00;;;16.10;;
13985;SDS011;7067;51.832;8.296;2023-01-23T08:24:36;19.97;;;17.83;;
13985;SDS011;7067;51.832;8.296;2023-01-23T08:27:02;18.73;;;16.83;;
13985;SDS011;7067;51.832;8.296;2023-01-23T08:29:27;17.40;;;15.60;;
13985;SDS011;7067;51.832;8.296;2023-01-23T08:31:52;19.07;;;17.07;;
13985;SDS011;7067;51.832;8.296;2023-01-23T08:34:19;19.80;;;17.80;;
13985;SDS011;7067;51.832;8.296;2023-01-23T08:36:45;18.43;;;16.50;;
13985;SDS011;7067;51.832;8.296;2023-01-23T08:39:10;21.00;;;16.47;;
13985;SDS011;7067;51.832;8.296;2023-01-23T08:41:36;19.57;;;17.50;;
13985;SDS011;7067;51.832;8.296;2023-01-23T08:44:01;21.53;;;18.17;;
13985;SDS011;7067;51.832;8.296;2023-01-23T08:46:28;19.53;;;17.30;;
13985;SDS011;7067;51.832;8.296;2023-01-23T08:48:53;21.87;;;17.90;;
13985;SDS011;7067;51.832;8.296;2023-01-23T08:51:19;21.43;;;18.80;;
13985;SDS011;7067;51.832;8.296;2023-01-23T08:53:45;19.17;;;17.17;;
13985;SDS011;7067;51.832;8.296;2023-01-23T08:56:14;21.27;;;18.97;;
13985;SDS011;7067;51.832;8.296;2023-01-23T08:58:44;22.00;;;19.80;;
13985;SDS011;7067;51.832;8.296;2023-01-23T09:01:11;20.50;;;18.40;;
13985;SDS011;7067;51.832;8.296;2023-01-23T09:03:37;20.50;;;18.20;;
13985;SDS011;7067;51.832;8.296;2023-01-23T09:06:03;22.77;;;19.33;;
13985;SDS011;7067;51.832;8.296;2023-01-23T09:08:28;22.93;;;19.33;;
13985;SDS011;7067;51.832;8.296;2023-01-23T09:10:58;21.33;;;19.00;;
13985;SDS011;7067;51.832;8.296;2023-01-23T09:13:27;22.63;;;19.33;;
13985;SDS011;7067;51.832;8.296;2023-01-23T09:15:52;21.30;;;18.00;;
13985;SDS011;7067;51.832;8.296;2023-01-23T09:18:18;20.33;;;18.10;;
13985;SDS011;7067;51.832;8.296;2023-01-23T09:20:43;21.17;;;18.97;;
13985;SDS011;7067;51.832;8.296;2023-01-23T09:23:09;19.47;;;17.53;;
13985;SDS011;7067;51.832;8.296;2023-01-23T09:25:34;19.27;;;16.97;;
13985;SDS011;7067;51.832;8.296;2023-01-23T09:27:59;19.53;;;17.43;;
13985;SDS011;7067;51.832;8.296;2023-01-23T09:30:25;20.47;;;18.33;;
13985;SDS011;7067;51.832;8.296;2023-01-23T09:32:50;21.33;;;17.57;;
13985;SDS011;7067;51.832;8.296;2023-01-23T09:35:17;20.77;;;17.77;;
13985;SDS011;7067;51.832;8.296;2023-01-23T09:37:42;19.57;;;17.43;;
13985;SDS011;7067;51.832;8.296;2023-01-23T09:40:30;19.37;;;17.30;;
13985;SDS011;7067;51.832;8.296;2023-01-23T09:42:57;19.20;;;17.07;;
13985;SDS011;7067;51.832;8.296;2023-01-23T09:47:53;20.27;;;18.20;;
13985;SDS011;7067;51.832;8.296;2023-01-23T09:50:27;19.93;;;17.93;;
13985;SDS011;7067;51.832;8.296;2023-01-23T09:52:59;20.93;;;17.83;;
13985;SDS011;7067;51.832;8.296;2023-01-23T09:55:41;18.77;;;16.87;;
13985;SDS011;7067;51.832;8.296;2023-01-23T09:58:14;21.27;;;18.10;;
13985;SDS011;7067;51.832;8.296;2023-01-23T10:00:46;20.53;;;17.30;;
13985;SDS011;7067;51.832;8.296;2023-01-23T10:03:13;19.27;;;17.30;;
13985;SDS011;7067;51.832;8.296;2023-01-23T10:05:49;20.40;;;18.23;;
13985;SDS011;7067;51.832;8.296;2023-01-23T10:10:58;19.87;;;17.73;;
13985;SDS011;7067;51.832;8.296;2023-01-23T10:18:43;20.40;;;18.30;;
13985;SDS011;7067;51.832;8.296;2023-01-23T10:24:05;20.57;;;18.03;;
13985;SDS011;7067;51.832;8.296;2023-01-23T10:26:42;20.37;;;18.30;;
13985;SDS011;7067;51.832;8.296;2023-01-23T10:29:15;19.48;;;17.40;;
13985;SDS011;7067;51.832;8.296;2023-01-23T10:31:49;22.50;;;18.13;;
13985;SDS011;7067;51.832;8.296;2023-01-23T10:34:19;20.07;;;18.00;;
13985;SDS011;7067;51.832;8.296;2023-01-23T10:37:04;19.57;;;17.57;;
13985;SDS011;7067;51.832;8.296;2023-01-23T10:39:43;20.47;;;18.27;;
13985;SDS011;7067;51.832;8.296;2023-01-23T10:42:12;18.17;;;16.33;;
13985;SDS011;7067;51.832;8.296;2023-01-23T10:44:38;20.70;;;18.33;;
13985;SDS011;7067;51.832;8.296;2023-01-23T10:47:03;17.63;;;15.93;;
13985;SDS011;7067;51.832;8.296;2023-01-23T10:49:42;19.17;;;17.17;;
13985;SDS011;7067;51.832;8.296;2023-01-23T10:55:01;17.97;;;16.17;;
13985;SDS011;7067;51.832;8.296;2023-01-23T10:57:42;18.73;;;16.73;;
13985;SDS011;7067;51.832;8.296;2023-01-23T11:02:51;19.80;;;17.70;;
13985;SDS011;7067;51.832;8.296;2023-01-23T11:05:36;18.87;;;16.90;;
13985;SDS011;7067;51.832;8.296;2023-01-23T11:08:03;18.60;;;16.70;;
13985;SDS011;7067;51.832;8.296;2023-01-23T11:10:46;19.70;;;17.10;;
13985;SDS011;7067;51.832;8.296;2023-01-23T11:13:20;19.93;;;17.90;;
13985;SDS011;7067;51.832;8.296;2023-01-23T11:15:50;19.60;;;17.60;;
13985;SDS011;7067;51.832;8.296;2023-01-23T11:18:26;19.50;;;17.53;;
13985;SDS011;7067;51.832;8.296;2023-01-23T11:20:54;19.23;;;17.37;;
13985;SDS011;7067;51.832;8.296;2023-01-23T11:23:19;18.53;;;16.63;;
13985;SDS011;7067;51.832;8.296;2023-01-23T11:25:49;18.50;;;16.60;;
13985;SDS011;7067;51.832;8.296;2023-01-23T11:30:45;19.83;;;17.73;;
13985;SDS011;7067;51.832;8.296;2023-01-23T11:33:13;18.83;;;16.93;;
13985;SDS011;7067;51.832;8.296;2023-01-23T11:38:53;19.90;;;17.93;;
13985;SDS011;7067;51.832;8.296;2023-01-23T11:41:22;19.83;;;17.70;;
13985;SDS011;7067;51.832;8.296;2023-01-23T11:43:52;18.30;;;16.40;;
13985;SDS011;7067;51.832;8.296;2023-01-23T11:49:44;20.83;;;18.00;;
13985;SDS011;7067;51.832;8.296;2023-01-23T12:10:56;19.80;;;17.73;;
13985;SDS011;7067;51.832;8.296;2023-01-23T12:13:32;19.90;;;17.30;;
13985;SDS011;7067;51.832;8.296;2023-01-23T12:16:34;21.23;;;17.42;;
13985;SDS011;7067;51.832;8.296;2023-01-23T12:27:41;18.87;;;16.87;;
13985;SDS011;7067;51.832;8.296;2023-01-23T12:39:02;20.40;;;17.07;;
13985;SDS011;7067;51.832;8.296;2023-01-23T12:44:12;19.50;;;17.40;;
13985;SDS011;7067;51.832;8.296;2023-01-23T12:49:42;21.13;;;18.10;;
13985;SDS011;7067;51.832;8.296;2023-01-23T12:52:14;20.85;;;16.90;;
13985;SDS011;7067;51.832;8.296;2023-01-23T12:54:55;23.13;;;17.90;;
13985;SDS011;7067;51.832;8.296;2023-01-23T12:57:27;20.70;;;17.40;;
13985;SDS011;7067;51.832;8.296;2023-01-23T13:05:32;20.50;;;17.30;;
13985;SDS011;7067;51.832;8.296;2023-01-23T13:08:18;20.73;;;17.05;;
13985;SDS011;7067;51.832;8.296;2023-01-23T13:13:42;21.13;;;18.00;;
13985;SDS011;7067;51.832;8.296;2023-01-23T13:18:34;22.00;;;18.00;;
13985;SDS011;7067;51.832;8.296;2023-01-23T13:21:21;18.53;;;16.63;;
13985;SDS011;7067;51.832;8.296;2023-01-23T13:24:24;19.20;;;16.27;;
13985;SDS011;7067;51.832;8.296;2023-01-23T13:32:54;18.90;;;16.93;;
13985;SDS011;7067;51.832;8.296;2023-01-23T13:41:10;19.20;;;17.10;;
13985;SDS011;7067;51.832;8.296;2023-01-23T13:49:23;19.33;;;17.33;;
13985;SDS011;7067;51.832;8.296;2023-01-23T13:52:20;18.77;;;16.80;;
13985;SDS011;7067;51.832;8.296;2023-01-23T13:58:01;19.03;;;16.73;;
13985;SDS011;7067;51.832;8.296;2023-01-23T14:00:27;20.40;;;17.57;;
13985;SDS011;7067;51.832;8.296;2023-01-23T14:06:04;17.87;;;15.87;;
13985;SDS011;7067;51.832;8.296;2023-01-23T14:08:31;17.42;;;15.65;;
13985;SDS011;7067;51.832;8.296;2023-01-23T14:10:56;20.93;;;17.07;;
13985;SDS011;7067;51.832;8.296;2023-01-23T14:13:21;18.43;;;16.53;;
13985;SDS011;7067;51.832;8.296;2023-01-23T14:15:49;19.60;;;16.20;;
13985;SDS011;7067;51.832;8.296;2023-01-23T14:18:53;18.43;;;16.43;;
13985;SDS011;7067;51.832;8.296;2023-01-23T14:21:21;20.77;;;16.70;;
13985;SDS011;7067;51.832;8.296;2023-01-23T14:23:51;21.23;;;17.83;;
13985;SDS011;7067;51.832;8.296;2023-01-23T14:28:54;18.10;;;16.20;;
13985;SDS011;7067;51.832;8.296;2023-01-23T14:31:34;23.83;;;17.70;;
13985;SDS011;7067;51.832;8.296;2023-01-23T14:34:02;26.03;;;17.63;;
13985;SDS011;7067;51.832;8.296;2023-01-23T14:36:29;20.50;;;17.93;;
13985;SDS011;7067;51.832;8.296;2023-01-23T14:38:56;19.77;;;17.67;;
13985;SDS011;7067;51.832;8.296;2023-01-23T14:41:24;20.57;;;17.73;;
13985;SDS011;7067;51.832;8.296;2023-01-23T14:43:53;20.88;;;17.08;;
13985;SDS011;7067;51.832;8.296;2023-01-23T14:46:20;20.07;;;16.47;;
13985;SDS011;7067;51.832;8.296;2023-01-23T14:48:52;20.07;;;16.83;;
13985;SDS011;7067;51.832;8.296;2023-01-23T14:51:21;21.40;;;16.97;;
13985;SDS011;7067;51.832;8.296;2023-01-23T14:54:00;21.07;;;16.20;;
13985;SDS011;7067;51.832;8.296;2023-01-23T14:56:31;18.17;;;16.23;;
13985;SDS011;7067;51.832;8.296;2023-01-23T14:58:59;20.43;;;17.37;;
13985;SDS011;7067;51.832;8.296;2023-01-23T15:01:26;20.90;;;17.67;;
13985;SDS011;7067;51.832;8.296;2023-01-23T15:04:18;21.13;;;17.13;;
13985;SDS011;7067;51.832;8.296;2023-01-23T15:06:48;19.97;;;16.67;;
13985;SDS011;7067;51.832;8.296;2023-01-23T15:09:18;19.00;;;17.00;;
13985;SDS011;7067;51.832;8.296;2023-01-23T15:11:53;20.17;;;17.33;;
13985;SDS011;7067;51.832;8.296;2023-01-23T15:14:21;19.17;;;16.85;;
13985;SDS011;7067;51.832;8.296;2023-01-23T15:17:13;19.60;;;17.53;;
13985;SDS011;7067;51.832;8.296;2023-01-23T15:19:41;20.60;;;16.87;;
13985;SDS011;7067;51.832;8.296;2023-01-23T15:22:15;20.20;;;18.10;;
13985;SDS011;7067;51.832;8.296;2023-01-23T15:24:43;21.70;;;18.77;;
13985;SDS011;7067;51.832;8.296;2023-01-23T15:27:21;22.50;;;18.47;;
13985;SDS011;7067;51.832;8.296;2023-01-23T15:29:50;22.90;;;20.40;;
13985;SDS011;7067;51.832;8.296;2023-01-23T15:32:21;22.43;;;18.97;;
13985;SDS011;7067;51.832;8.296;2023-01-23T15:34:52;22.13;;;19.27;;
13985;SDS011;7067;51.832;8.296;2023-01-23T15:37:25;22.53;;;18.70;;
13985;SDS011;7067;51.832;8.296;2023-01-23T15:39:58;20.60;;;18.23;;
13985;SDS011;7067;51.832;8.296;2023-01-23T15:44:53;23.03;;;19.27;;
13985;SDS011;7067;51.832;8.296;2023-01-23T15:47:18;26.00;;;20.23;;
13985;SDS011;7067;51.832;8.296;2023-01-23T15:49:44;23.03;;;19.80;;
13985;SDS011;7067;51.832;8.296;2023-01-23T15:52:19;22.80;;;19.80;;
13985;SDS011;7067;51.832;8.296;2023-01-23T15:54:51;28.47;;;21.67;;
13985;SDS011;7067;51.832;8.296;2023-01-23T15:57:18;28.83;;;21.87;;
13985;SDS011;7067;51.832;8.296;2023-01-23T15:59:44;27.33;;;21.43;;
13985;SDS011;7067;51.832;8.296;2023-01-23T16:02:16;25.37;;;21.90;;
13985;SDS011;7067;51.832;8.296;2023-01-23T16:04:45;24.17;;;20.23;;
13985;SDS011;7067;51.832;8.296;2023-01-23T16:07:19;27.33;;;20.43;;
13985;SDS011;7067;51.832;8.296;2023-01-23T16:09:45;24.07;;;20.60;;
13985;SDS011;7067;51.832;8.296;2023-01-23T16:12:14;26.67;;;21.37;;
13985;SDS011;7067;51.832;8.296;2023-01-23T16:14:41;28.50;;;21.93;;
13985;SDS011;7067;51.832;8.296;2023-01-23T16:17:07;27.20;;;20.97;;
13985;SDS011;7067;51.832;8.296;2023-01-23T16:19:32;23.90;;;19.27;;
13985;SDS011;7067;51.832;8.296;2023-01-23T16:21:58;27.10;;;21.37;;
13985;SDS011;7067;51.832;8.296;2023-01-23T16:24:23;24.20;;;20.10;;
13985;SDS011;7067;51.832;8.296;2023-01-23T16:26:49;27.67;;;22.50;;
13985;SDS011;7067;51.832;8.296;2023-01-23T16:29:25;25.97;;;20.47;;
13985;SDS011;7067;51.832;8.296;2023-01-23T16:31:55;29.88;;;23.52;;
13985;SDS011;7067;51.832;8.296;2023-01-23T16:34:21;25.10;;;21.27;;
13985;SDS011;7067;51.832;8.296;2023-01-23T16:36:47;25.40;;;21.20;;